Time;durP1;ratioP1;P1;durP2;ratioP2;P2;SDS_P1;SDS_P2;PMS_P1;PMS_P2;Temp;Humidity;BMP_temperature;BMP_pressure;BME280_temperature;BME280_humidity;BME280_pressure;Samples;Min_cycle;Max_cycle;Signal;HPM_P1;HPM_P2
2021/06/16 00:02:01;;;;;;;3.17;1.30;;;19.30;54.10;;;;;;5050354;28;20112;-87
2021/06/16 00:04:26;;;;;;;3.08;1.30;;;19.30;54.20;;;;;;5049779;28;20013;-86
2021/06/16 00:06:52;;;;;;;2.58;1.10;;;19.20;54.70;;;;;;5050381;28;20415;-87
2021/06/16 00:09:18;;;;;;;3.78;1.42;;;19.20;54.70;;;;;;5031406;28;20425;-86
2021/06/16 00:11:43;;;;;;;2.45;1.27;;;19.10;54.90;;;;;;5053865;28;20022;-87
2021/06/16 00:14:09;;;;;;;2.42;1.10;;;19.10;54.80;;;;;;5031152;28;20033;-87
2021/06/16 00:16:35;;;;;;;3.00;1.40;;;19.10;54.60;;;;;;5045617;28;20100;-87
2021/06/16 00:19:01;;;;;;;3.38;1.23;;;19.10;54.50;;;;;;5045215;28;20094;-86
2021/06/16 00:21:27;;;;;;;2.13;1.20;;;19.10;54.50;;;;;;5049885;28;20120;-87
2021/06/16 00:23:52;;;;;;;3.70;1.60;;;19.20;54.80;;;;;;5045094;28;20498;-87
2021/06/16 00:26:18;;;;;;;3.45;1.58;;;19.00;55.30;;;;;;5048896;28;20115;-87
2021/06/16 00:28:45;;;;;;;2.88;1.35;;;19.00;55.20;;;;;;5049733;28;20025;-87
2021/06/16 00:31:11;;;;;;;3.53;1.45;;;19.00;55.10;;;;;;5049380;28;20021;-87
2021/06/16 00:33:36;;;;;;;4.53;1.70;;;19.00;55.40;;;;;;5048154;28;20601;-86
2021/06/16 00:36:02;;;;;;;2.42;1.50;;;18.90;55.90;;;;;;5050430;28;20112;-87
2021/06/16 00:38:28;;;;;;;4.28;1.30;;;18.90;55.90;;;;;;5030947;28;20038;-87
2021/06/16 00:40:57;;;;;;;3.22;1.30;;;18.90;55.60;;;;;;5051758;28;20090;-88
2021/06/16 00:43:23;;;;;;;3.13;1.40;;;18.90;55.50;;;;;;5054129;28;20029;-87
2021/06/16 00:45:48;;;;;;;3.30;1.25;;;18.90;55.40;;;;;;5053888;28;20017;-87
2021/06/16 00:48:14;;;;;;;4.40;1.42;;;18.90;55.30;;;;;;5053958;28;20031;-86
2021/06/16 00:50:41;;;;;;;4.03;1.52;;;18.90;55.30;;;;;;5053242;28;20029;-86
2021/06/16 00:53:07;;;;;;;3.75;1.58;;;18.90;55.50;;;;;;5053465;28;20096;-86
2021/06/16 00:55:37;;;;;;;4.55;1.70;;;18.80;55.80;;;;;;5053434;28;20048;-86
2021/06/16 00:58:03;;;;;;;4.15;1.67;;;18.70;55.90;;;;;;5054107;28;20029;-87
2021/06/16 01:00:39;;;;;;;3.45;1.75;;;18.60;55.90;;;;;;5053511;28;20044;-86
2021/06/16 01:03:17;;;;;;;3.85;1.70;;;18.60;56.10;;;;;;5053346;28;20036;-86
2021/06/16 01:05:49;;;;;;;4.05;1.83;;;18.60;56.00;;;;;;5053271;28;20059;-87
2021/06/16 01:08:21;;;;;;;;;;;18.50;56.20;;;;;;5053104;28;20456;-85
2021/06/16 01:10:48;;;;;;;2.72;1.45;;;18.50;56.20;;;;;;5052844;28;19909;-86
2021/06/16 01:13:28;;;;;;;2.95;1.40;;;18.50;56.40;;;;;;5053179;28;20073;-87
2021/06/16 01:16:16;;;;;;;4.72;1.63;;;18.50;56.30;;;;;;5053250;28;20033;-87
2021/06/16 01:18:55;;;;;;;3.92;1.40;;;18.40;56.00;;;;;;5053095;28;20036;-87
2021/06/16 01:21:23;;;;;;;4.50;1.85;;;18.50;55.80;;;;;;5053344;28;20025;-87
2021/06/16 01:23:56;;;;;;;3.58;1.20;;;18.50;55.80;;;;;;5049477;28;20028;-88
2021/06/16 01:26:24;;;;;;;3.47;1.80;;;18.50;55.70;;;;;;5053236;28;20025;-86
2021/06/16 01:28:54;;;;;;;4.40;1.50;;;18.60;55.60;;;;;;5052966;28;20028;-87
2021/06/16 01:31:20;;;;;;;3.28;1.48;;;18.60;55.60;;;;;;5048960;28;20043;-84
2021/06/16 01:33:47;;;;;;;5.78;1.85;;;18.50;55.60;;;;;;5052396;28;20025;-85
2021/06/16 01:36:14;;;;;;;3.85;1.60;;;18.60;55.60;;;;;;5053008;28;20028;-87
2021/06/16 01:38:45;;;;;;;4.15;1.90;;;18.50;55.50;;;;;;5035402;28;20041;-87
2021/06/16 01:41:12;;;;;;;3.17;1.50;;;18.50;55.60;;;;;;5053492;28;20071;-88
2021/06/16 01:43:40;;;;;;;3.03;1.17;;;18.50;55.60;;;;;;5052067;28;20033;-88
2021/06/16 01:46:07;;;;;;;5.07;1.77;;;18.50;55.50;;;;;;5052606;28;20407;-86
2021/06/16 01:48:34;;;;;;;2.85;1.15;;;18.60;55.40;;;;;;5053561;28;20032;-87
2021/06/16 01:51:00;;;;;;;4.25;1.42;;;18.60;55.30;;;;;;5048876;28;20017;-86
2021/06/16 01:53:27;;;;;;;2.40;1.20;;;18.60;55.30;;;;;;5031155;28;20017;-86
2021/06/16 01:55:53;;;;;;;4.35;1.60;;;18.60;55.30;;;;;;5027884;28;20033;-87
2021/06/16 01:58:20;;;;;;;4.10;1.50;;;18.60;55.30;;;;;;5052628;28;20021;-87
2021/06/16 02:00:47;;;;;;;3.17;1.10;;;18.60;55.30;;;;;;5040980;28;20040;-87
2021/06/16 02:03:13;;;;;;;4.50;1.30;;;18.60;55.20;;;;;;5052711;28;20070;-87
2021/06/16 02:05:39;;;;;;;5.40;1.92;;;18.60;55.20;;;;;;5052272;28;20029;-87
2021/06/16 02:08:10;;;;;;;3.05;1.20;;;18.60;55.20;;;;;;5052852;28;20040;-87
2021/06/16 02:10:42;;;;;;;4.85;1.50;;;18.60;55.20;;;;;;5039191;28;20035;-87
2021/06/16 02:13:10;;;;;;;4.32;1.65;;;18.50;55.20;;;;;;5052226;28;20036;-88
2021/06/16 02:15:46;;;;;;;3.72;1.33;;;18.50;55.30;;;;;;5043855;28;20025;-86
2021/06/16 02:18:13;;;;;;;3.88;1.40;;;18.40;55.30;;;;;;5054983;28;20037;-87
2021/06/16 02:20:39;;;;;;;5.35;1.30;;;18.40;55.40;;;;;;5067504;28;20105;-87
2021/06/16 02:23:05;;;;;;;2.72;1.30;;;18.40;55.50;;;;;;5053019;28;20494;-92
2021/06/16 02:25:32;;;;;;;5.35;2.08;;;18.40;55.60;;;;;;5053625;28;20108;-88
2021/06/16 02:27:58;;;;;;;4.30;1.60;;;18.40;55.80;;;;;;5051752;28;20021;-88
2021/06/16 02:30:24;;;;;;;3.42;1.70;;;18.30;55.90;;;;;;5051987;28;20019;-88
2021/06/16 02:32:49;;;;;;;3.92;1.38;;;18.40;55.70;;;;;;5058103;28;20490;-88
2021/06/16 02:35:16;;;;;;;2.58;1.50;;;18.30;55.80;;;;;;5058593;28;20467;-87
2021/06/16 02:37:52;;;;;;;3.72;1.65;;;18.30;55.90;;;;;;5042960;28;20052;-87
2021/06/16 02:40:19;;;;;;;4.43;1.30;;;18.30;56.10;;;;;;5052100;28;20112;-86
2021/06/16 02:42:48;;;;;;;4.90;1.70;;;18.30;56.20;;;;;;5051182;28;20013;-86
2021/06/16 02:45:15;;;;;;;3.42;1.50;;;18.20;57.00;;;;;;5058887;28;20115;-85
2021/06/16 02:47:43;;;;;;;3.85;1.70;;;18.20;56.40;;;;;;5052856;28;20033;-85
2021/06/16 02:50:11;;;;;;;3.85;1.80;;;18.10;56.50;;;;;;5052063;28;20025;-87
2021/06/16 02:52:40;;;;;;;3.42;1.58;;;18.20;56.60;;;;;;5050964;28;20499;-87
2021/06/16 02:55:07;;;;;;;3.50;1.70;;;18.10;56.60;;;;;;5051957;28;20032;-87
2021/06/16 02:57:35;;;;;;;5.47;2.20;;;18.10;56.80;;;;;;5052449;28;20024;-87
2021/06/16 03:00:07;;;;;;;4.25;1.98;;;18.10;57.10;;;;;;5051675;28;20060;-87
2021/06/16 03:02:34;;;;;;;4.80;2.00;;;18.00;57.20;;;;;;5051778;28;20044;-87
2021/06/16 03:05:01;;;;;;;3.70;2.38;;;18.00;57.20;;;;;;5040411;28;20025;-87
2021/06/16 03:07:28;;;;;;;2.38;1.50;;;18.00;57.30;;;;;;5031188;28;20021;-87
2021/06/16 03:09:57;;;;;;;3.58;1.60;;;18.00;57.30;;;;;;5031963;28;20029;-86
2021/06/16 03:12:23;;;;;;;4.75;1.60;;;18.00;57.30;;;;;;5043281;28;20104;-87
2021/06/16 03:14:50;;;;;;;4.60;1.90;;;18.00;57.20;;;;;;5050059;28;20047;-86
2021/06/16 03:17:18;;;;;;;4.43;1.90;;;18.00;57.20;;;;;;5026397;28;20024;-87
2021/06/16 03:19:46;;;;;;;4.43;1.50;;;18.00;57.50;;;;;;5048030;28;20044;-87
2021/06/16 03:22:12;;;;;;;3.03;1.70;;;18.00;57.50;;;;;;5049860;28;20025;-87
2021/06/16 03:24:39;;;;;;;3.03;1.30;;;18.00;57.50;;;;;;5039089;28;20033;-87
2021/06/16 03:27:06;;;;;;;2.65;1.40;;;18.00;57.30;;;;;;5049364;28;20389;-86
2021/06/16 03:29:34;;;;;;;3.70;1.90;;;18.00;57.30;;;;;;5036090;28;20028;-87
2021/06/16 03:32:02;;;;;;;4.82;2.10;;;18.00;57.50;;;;;;5050032;28;20044;-87
2021/06/16 03:34:28;;;;;;;5.07;2.22;;;18.00;57.80;;;;;;5038389;28;20029;-87
2021/06/16 03:36:55;;;;;;;3.38;1.63;;;17.90;58.00;;;;;;5048828;28;20016;-87
2021/06/16 03:39:22;;;;;;;4.18;1.85;;;17.90;58.00;;;;;;5034308;28;20036;-86
2021/06/16 03:41:48;;;;;;;4.88;1.73;;;17.90;57.90;;;;;;5048011;28;20025;-86
2021/06/16 03:44:13;;;;;;;4.63;1.60;;;17.90;57.90;;;;;;5041195;28;20033;-88
2021/06/16 03:46:41;;;;;;;5.70;2.10;;;17.90;57.80;;;;;;5050079;28;20541;-87
2021/06/16 03:49:10;;;;;;;4.05;1.40;;;17.90;57.90;;;;;;5050034;28;20067;-88
2021/06/16 03:51:39;;;;;;;4.60;1.90;;;18.00;57.70;;;;;;5031524;28;20019;-88
2021/06/16 03:54:11;;;;;;;3.88;1.67;;;18.00;57.60;;;;;;5050477;28;20037;-87
2021/06/16 03:56:41;;;;;;;5.43;2.25;;;18.10;57.50;;;;;;5028283;28;20467;-87
2021/06/16 03:59:08;;;;;;;6.60;2.08;;;18.00;57.70;;;;;;5050836;28;20051;-88
2021/06/16 04:01:36;;;;;;;3.03;1.80;;;18.00;57.80;;;;;;5049660;28;20119;-88
2021/06/16 04:04:06;;;;;;;4.22;2.22;;;18.10;57.70;;;;;;5050282;28;20044;-87
2021/06/16 04:06:34;;;;;;;4.75;1.45;;;18.00;57.90;;;;;;5050251;28;20021;-87
2021/06/16 04:09:00;;;;;;;5.18;1.98;;;18.10;57.90;;;;;;5050486;28;20021;-87
2021/06/16 04:11:26;;;;;;;4.40;2.17;;;18.00;58.00;;;;;;5050016;28;20017;-87
2021/06/16 04:13:55;;;;;;;3.95;1.95;;;18.00;58.10;;;;;;5049799;28;20032;-87
2021/06/16 04:16:21;;;;;;;5.45;2.40;;;18.00;58.50;;;;;;5049505;28;20017;-91
2021/06/16 04:18:46;;;;;;;5.93;2.00;;;17.90;58.60;;;;;;5040477;28;20179;-87
2021/06/16 04:21:12;;;;;;;4.00;2.15;;;17.90;58.60;;;;;;5050503;28;20028;-87
2021/06/16 04:23:38;;;;;;;4.97;1.90;;;18.00;58.50;;;;;;5049881;28;20025;-88
2021/06/16 04:26:03;;;;;;;3.30;1.50;;;18.00;58.50;;;;;;5050205;28;20021;-87
2021/06/16 04:28:29;;;;;;;3.85;2.40;;;18.10;58.50;;;;;;5049907;28;20420;-87
2021/06/16 04:30:54;;;;;;;3.63;1.70;;;18.10;58.40;;;;;;5041933;28;20025;-88
2021/06/16 04:33:23;;;;;;;4.22;1.90;;;18.10;58.20;;;;;;5048832;28;20361;-88
2021/06/16 04:35:48;;;;;;;4.15;1.77;;;18.20;58.20;;;;;;5050424;28;20052;-87
2021/06/16 04:38:14;;;;;;;3.42;1.63;;;18.20;58.20;;;;;;5050078;28;20530;-88
2021/06/16 04:40:39;;;;;;;3.85;2.00;;;18.30;58.40;;;;;;5030796;28;20131;-88
2021/06/16 04:43:05;;;;;;;2.88;1.80;;;18.30;58.00;;;;;;5031018;28;20064;-87
2021/06/16 04:45:31;;;;;;;4.70;2.28;;;18.40;58.00;;;;;;5030665;28;20515;-89
2021/06/16 04:47:57;;;;;;;5.47;1.88;;;18.50;57.90;;;;;;5039316;28;20021;-85
2021/06/16 04:50:22;;;;;;;3.70;1.77;;;18.50;57.80;;;;;;5038972;28;20037;-88
2021/06/16 04:52:48;;;;;;;4.97;1.90;;;18.80;57.60;;;;;;5044271;28;20526;-88
2021/06/16 04:55:14;;;;;;;5.25;2.10;;;19.10;56.80;;;;;;5047824;28;20039;-88
2021/06/16 04:57:40;;;;;;;4.07;1.60;;;19.50;56.10;;;;;;5047167;28;20361;-88
2021/06/16 05:00:09;;;;;;;3.95;1.60;;;19.80;55.40;;;;;;5045844;28;20127;-88
2021/06/16 05:02:35;;;;;;;4.18;2.15;;;20.30;54.50;;;;;;5013810;28;20396;-89
2021/06/16 05:05:00;;;;;;;3.88;1.77;;;20.40;53.80;;;;;;5043934;28;20025;-89
2021/06/16 05:07:26;;;;;;;4.35;2.22;;;20.50;53.60;;;;;;5026313;28;20083;-88
2021/06/16 05:09:51;;;;;;;3.10;2.10;;;20.70;53.20;;;;;;5043717;28;20017;-85
2021/06/16 05:12:17;;;;;;;4.47;1.80;;;20.60;53.20;;;;;;5035045;28;20076;-87
2021/06/16 05:14:43;;;;;;;4.90;1.77;;;20.70;53.10;;;;;;5046102;28;20029;-86
2021/06/16 05:17:08;;;;;;;2.47;1.88;;;21.00;52.90;;;;;;5031061;28;20052;-87
2021/06/16 05:19:34;;;;;;;3.38;1.88;;;21.20;52.50;;;;;;5041888;28;20421;-87
2021/06/16 05:22:18;;;;;;;5.07;2.42;;;21.30;52.20;;;;;;5035662;28;20132;-87
2021/06/16 05:24:44;;;;;;;4.47;2.20;;;21.30;52.10;;;;;;5041878;28;20033;-87
2021/06/16 05:27:13;;;;;;;3.97;2.20;;;21.30;52.10;;;;;;5021204;28;20384;-86
2021/06/16 05:29:38;;;;;;;3.45;1.80;;;21.30;52.10;;;;;;5043645;28;20499;-85
2021/06/16 05:32:04;;;;;;;3.17;1.67;;;21.20;52.30;;;;;;5044459;28;20117;-85
2021/06/16 05:34:29;;;;;;;4.25;2.10;;;21.20;52.50;;;;;;5027272;28;20676;-85
2021/06/16 05:36:55;;;;;;;3.65;2.20;;;21.20;52.70;;;;;;5047956;28;20489;-85
2021/06/16 05:39:21;;;;;;;4.15;1.83;;;21.20;52.70;;;;;;5044165;28;20097;-85
2021/06/16 05:41:46;;;;;;;3.92;1.92;;;21.30;52.70;;;;;;5023189;28;20018;-86
2021/06/16 05:44:12;;;;;;;4.35;1.92;;;21.70;52.70;;;;;;5035239;28;20112;-86
2021/06/16 05:46:37;;;;;;;5.63;2.30;;;21.70;52.40;;;;;;5047953;28;20025;-86
2021/06/16 05:49:03;;;;;;;3.00;1.40;;;21.70;52.30;;;;;;5040965;28;20495;-84
2021/06/16 05:51:28;;;;;;;3.55;1.92;;;21.90;52.10;;;;;;5042621;28;20025;-85
2021/06/16 05:53:54;;;;;;;3.92;2.42;;;22.10;51.80;;;;;;5042939;28;20059;-86
2021/06/16 05:56:19;;;;;;;5.05;2.10;;;22.10;51.40;;;;;;5043528;28;20017;-85
2021/06/16 05:58:45;;;;;;;4.57;2.22;;;21.90;51.50;;;;;;5029231;28;20049;-87
2021/06/16 06:01:11;;;;;;;3.72;1.70;;;22.00;51.70;;;;;;5046005;28;20017;-87
2021/06/16 06:03:37;;;;;;;4.38;2.03;;;22.00;51.50;;;;;;5041727;28;20036;-86
2021/06/16 06:06:03;;;;;;;4.40;1.90;;;21.90;51.60;;;;;;5043849;28;20029;-87
2021/06/16 06:08:28;;;;;;;6.68;2.38;;;22.00;51.70;;;;;;5053845;28;20059;-87
2021/06/16 06:10:57;;;;;;;3.85;2.00;;;21.90;51.70;;;;;;5021946;28;20519;-87
2021/06/16 06:13:22;;;;;;;4.72;1.88;;;22.00;51.70;;;;;;5017752;28;20420;-88
2021/06/16 06:15:48;;;;;;;3.83;2.30;;;22.00;51.70;;;;;;5053822;28;20035;-87
2021/06/16 06:18:13;;;;;;;2.65;2.10;;;22.20;51.30;;;;;;5030398;28;20032;-87
2021/06/16 06:20:39;;;;;;;3.38;1.92;;;22.30;51.50;;;;;;5052649;28;20031;-87
2021/06/16 06:23:05;;;;;;;3.08;1.60;;;22.40;51.90;;;;;;5055139;28;20475;-91
2021/06/16 06:25:30;;;;;;;4.85;1.98;;;22.50;51.00;;;;;;5053398;28;20076;-86
2021/06/16 06:27:56;;;;;;;2.80;1.80;;;22.70;51.10;;;;;;5052781;28;20196;-88
2021/06/16 06:30:21;;;;;;;3.53;1.73;;;22.80;50.70;;;;;;5048410;28;20028;-89
2021/06/16 06:32:47;;;;;;;5.53;2.20;;;22.80;50.30;;;;;;5051408;28;20024;-89
2021/06/16 06:35:13;;;;;;;4.85;2.40;;;22.80;50.50;;;;;;5053984;28;20021;-88
2021/06/16 06:37:38;;;;;;;2.88;1.85;;;22.70;50.40;;;;;;5026245;28;20425;-88
2021/06/16 06:40:05;;;;;;;5.18;1.90;;;22.70;50.70;;;;;;5047368;28;20045;-88
2021/06/16 06:42:30;;;;;;;2.22;1.30;;;22.70;50.50;;;;;;5022881;28;20540;-88
2021/06/16 06:44:56;;;;;;;3.53;1.92;;;22.90;50.50;;;;;;5038545;28;20163;-88
2021/06/16 06:47:25;;;;;;;3.00;1.60;;;23.00;50.40;;;;;;5028898;28;20029;-88
2021/06/16 06:49:51;;;;;;;3.35;1.80;;;23.20;50.40;;;;;;5050947;28;20102;-91
2021/06/16 06:52:17;;;;;;;3.67;1.88;;;23.30;50.10;;;;;;5047589;28;20052;-90
2021/06/16 06:54:42;;;;;;;3.75;1.70;;;23.30;49.90;;;;;;5048670;28;20025;-91
2021/06/16 06:57:08;;;;;;;3.38;1.60;;;23.40;49.60;;;;;;5052872;28;20257;-88
2021/06/16 06:59:34;;;;;;;4.35;2.10;;;23.60;49.60;;;;;;5051916;28;20510;-88
2021/06/16 07:01:59;;;;;;;4.13;1.85;;;23.50;49.00;;;;;;5041800;28;20387;-87
2021/06/16 07:04:26;;;;;;;3.47;2.00;;;23.60;49.30;;;;;;5032934;28;20025;-88
2021/06/16 07:06:53;;;;;;;4.53;1.92;;;23.60;48.90;;;;;;5048602;28;20028;-96
2021/06/16 07:09:18;;;;;;;3.55;1.58;;;23.60;48.90;;;;;;5047746;28;20273;-88
2021/06/16 07:11:44;;;;;;;3.85;1.70;;;23.80;48.90;;;;;;5049844;28;20076;-86
2021/06/16 07:14:10;;;;;;;3.03;1.67;;;24.00;48.70;;;;;;5032970;28;20033;-86
2021/06/16 07:16:35;;;;;;;4.75;1.85;;;24.30;48.50;;;;;;5047398;28;20032;-86
2021/06/16 07:19:01;;;;;;;4.25;2.28;;;24.40;47.40;;;;;;5039334;28;20043;-87
2021/06/16 07:21:26;;;;;;;4.05;1.77;;;24.40;47.00;;;;;;5050726;28;20029;-87
2021/06/16 07:23:52;;;;;;;2.35;1.50;;;24.30;47.30;;;;;;5048678;28;20045;-89
2021/06/16 07:26:18;;;;;;;3.20;1.55;;;24.60;47.20;;;;;;5045915;28;20036;-85
2021/06/16 07:28:43;;;;;;;3.40;1.83;;;24.60;46.80;;;;;;5050470;28;20387;-86
2021/06/16 07:31:09;;;;;;;5.05;1.80;;;24.60;47.10;;;;;;5043960;28;20028;-87
2021/06/16 07:33:35;;;;;;;3.90;2.05;;;24.70;46.60;;;;;;5039825;28;20056;-86
2021/06/16 07:36:01;;;;;;;4.70;2.20;;;24.70;46.00;;;;;;5049099;28;20036;-85
2021/06/16 07:38:27;;;;;;;4.40;2.00;;;24.80;45.30;;;;;;5048833;28;20029;-85
2021/06/16 07:40:52;;;;;;;3.67;1.63;;;24.80;45.30;;;;;;5046191;28;20361;-85
2021/06/16 07:43:18;;;;;;;4.55;2.10;;;24.80;45.40;;;;;;5030874;28;20032;-84
2021/06/16 07:45:44;;;;;;;2.90;1.98;;;24.70;44.80;;;;;;5041488;28;20033;-87
2021/06/16 07:48:09;;;;;;;2.90;1.60;;;24.80;44.80;;;;;;5049388;28;20056;-86
2021/06/16 07:50:38;;;;;;;2.92;1.55;;;25.00;44.70;;;;;;5046062;28;20037;-86
2021/06/16 07:53:07;;;;;;;2.35;1.50;;;25.10;44.40;;;;;;5044131;28;20021;-85
2021/06/16 07:55:34;;;;;;;2.30;1.27;;;25.30;44.50;;;;;;5043143;28;20577;-86
2021/06/16 07:57:59;;;;;;;3.63;1.50;;;25.40;44.00;;;;;;5047748;28;20017;-86
2021/06/16 08:00:25;;;;;;;4.13;1.52;;;25.50;44.30;;;;;;5042899;28;20029;-86
2021/06/16 08:02:51;;;;;;;3.25;1.60;;;25.60;43.10;;;;;;5047381;28;20102;-86
2021/06/16 08:05:16;;;;;;;4.28;1.90;;;25.50;42.50;;;;;;5048625;28;20032;-85
2021/06/16 08:07:43;;;;;;;4.43;1.48;;;25.30;42.70;;;;;;5047562;28;20081;-85
2021/06/16 08:10:09;;;;;;;3.35;1.42;;;25.40;43.30;;;;;;5046984;28;20558;-86
2021/06/16 08:12:35;;;;;;;3.20;1.52;;;25.50;43.30;;;;;;5049366;28;20025;-86
2021/06/16 08:15:01;;;;;;;2.50;1.42;;;25.60;43.00;;;;;;5043043;28;20553;-86
2021/06/16 08:17:27;;;;;;;2.60;1.30;;;25.60;43.10;;;;;;5049452;28;20045;-86
2021/06/16 08:19:52;;;;;;;3.15;1.52;;;25.70;43.10;;;;;;5047371;28;20036;-84
2021/06/16 08:22:18;;;;;;;3.45;1.40;;;25.70;43.40;;;;;;5043271;28;20059;-85
2021/06/16 08:24:44;;;;;;;3.38;1.70;;;25.70;43.40;;;;;;5050987;28;20020;-86
2021/06/16 08:27:10;;;;;;;5.43;1.70;;;25.80;43.60;;;;;;5042965;28;20021;-86
2021/06/16 08:29:36;;;;;;;3.97;1.42;;;26.00;43.90;;;;;;5017698;28;20029;-84
2021/06/16 08:32:02;;;;;;;2.42;1.50;;;26.10;44.00;;;;;;5050787;28;20083;-85
2021/06/16 08:34:28;;;;;;;2.45;1.60;;;26.30;44.10;;;;;;5046559;28;20036;-85
2021/06/16 08:36:54;;;;;;;3.85;2.00;;;26.40;44.00;;;;;;5047593;28;20029;-86
2021/06/16 08:39:21;;;;;;;3.40;1.67;;;26.20;43.60;;;;;;5025898;28;20029;-87
2021/06/16 08:41:47;;;;;;;4.53;2.22;;;26.30;44.00;;;;;;5047608;28;20109;-86
2021/06/16 08:44:14;;;;;;;3.47;1.95;;;26.30;43.80;;;;;;5050073;28;20028;-86
2021/06/16 08:46:40;;;;;;;2.97;2.40;;;26.20;43.90;;;;;;5020672;28;20029;-87
2021/06/16 08:49:07;;;;;;;3.60;2.00;;;26.10;44.00;;;;;;5037102;28;20025;-87
2021/06/16 08:51:34;;;;;;;2.88;1.95;;;26.10;44.30;;;;;;5037734;28;20475;-86
2021/06/16 08:54:00;;;;;;;3.13;2.40;;;26.30;44.60;;;;;;5039410;28;20082;-85
2021/06/16 08:56:27;;;;;;;3.50;1.98;;;26.30;44.20;;;;;;5036935;28;20040;-87
2021/06/16 08:58:52;;;;;;;4.35;2.60;;;26.20;44.30;;;;;;5048098;28;20024;-87
2021/06/16 09:01:20;;;;;;;3.83;2.20;;;26.20;44.20;;;;;;5020769;28;20021;-86
2021/06/16 09:03:45;;;;;;;4.75;2.50;;;26.20;44.20;;;;;;5040635;28;20029;-87
2021/06/16 09:06:15;;;;;;;2.10;1.33;;;26.10;44.20;;;;;;5045600;28;20020;-87
2021/06/16 09:09:05;;;;;;;2.20;1.75;;;26.30;44.40;;;;;;5023210;28;20391;-87
2021/06/16 09:11:40;;;;;;;3.67;2.13;;;26.60;44.40;;;;;;5032021;28;20044;-86
2021/06/16 09:14:19;;;;;;;2.72;1.85;;;26.80;44.00;;;;;;5041020;28;20113;-89
2021/06/16 09:16:45;;;;;;;4.00;2.00;;;26.80;43.80;;;;;;5018608;28;20495;-89
2021/06/16 09:19:20;;;;;;;2.10;1.80;;;26.90;43.70;;;;;;5045330;28;20414;-88
2021/06/16 09:21:47;;;;;;;3.08;2.13;;;27.10;43.60;;;;;;5041003;28;20391;-90
2021/06/16 09:24:13;;;;;;;3.40;1.85;;;27.10;43.20;;;;;;5047276;28;20388;-89
2021/06/16 09:26:41;;;;;;;4.57;2.58;;;27.10;43.10;;;;;;5041645;28;20046;-89
2021/06/16 09:29:07;;;;;;;1.65;1.23;;;26.90;42.80;;;;;;5041657;28;20444;-90
2021/06/16 09:31:38;;;;;;;2.28;1.60;;;27.10;43.30;;;;;;5024561;28;20079;-89
2021/06/16 09:34:05;;;;;;;;;;;27.20;43.00;;;;;;5030477;28;20032;-91
2021/06/16 09:36:31;;;;;;;2.42;1.83;;;27.40;42.90;;;;;;5044886;28;19905;-92
2021/06/16 09:39:07;;;;;;;3.53;2.10;;;27.40;42.30;;;;;;5051602;28;20039;-90
2021/06/16 09:41:32;;;;;;;2.88;1.90;;;27.20;41.90;;;;;;5026651;28;20108;-90
2021/06/16 09:43:58;;;;;;;3.25;2.10;;;27.30;42.20;;;;;;5037767;28;20048;-88
2021/06/16 09:46:23;;;;;;;2.83;1.70;;;27.30;41.80;;;;;;5045300;28;20228;-88
2021/06/16 09:48:50;;;;;;;3.75;2.20;;;27.30;41.80;;;;;;5025414;28;20025;-90
2021/06/16 09:51:16;;;;;;;5.18;1.90;;;27.30;41.70;;;;;;5047483;28;20466;-85
2021/06/16 09:54:21;;;;;;;1.45;1.35;;;27.30;41.90;;;;;;5039681;28;20438;-87
2021/06/16 09:56:59;;;;;;;3.35;1.70;;;27.40;42.20;;;;;;5020447;28;20018;-86
2021/06/16 09:59:35;;;;;;;3.20;1.80;;;27.60;41.80;;;;;;5022058;28;20045;-87
2021/06/16 10:02:01;;;;;;;2.70;2.22;;;27.50;41.40;;;;;;5043337;28;20027;-86
2021/06/16 10:04:56;;;;;;;2.22;1.50;;;27.50;41.20;;;;;;5041686;28;20029;-84
2021/06/16 10:07:30;;;;;;;2.20;1.83;;;27.50;42.00;;;;;;5021264;28;20048;-86
2021/06/16 10:09:58;;;;;;;3.55;2.10;;;27.80;41.90;;;;;;5049277;28;20028;-86
2021/06/16 10:12:35;;;;;;;3.17;1.63;;;27.90;41.50;;;;;;5048437;28;20617;-86
2021/06/16 10:15:05;;;;;;;2.05;1.30;;;27.90;41.20;;;;;;5033089;28;20072;-85
2021/06/16 10:17:30;;;;;;;1.98;1.67;;;28.00;41.50;;;;;;5050825;28;20031;-85
2021/06/16 10:19:56;;;;;;;1.90;1.67;;;28.00;41.10;;;;;;5047913;28;20033;-83
2021/06/16 10:22:22;;;;;;;3.63;1.90;;;28.00;41.30;;;;;;5041374;28;20033;-84
2021/06/16 10:24:49;;;;;;;3.03;1.90;;;28.00;41.50;;;;;;5042411;28;20472;-86
2021/06/16 10:27:31;;;;;;;2.05;1.30;;;28.10;41.40;;;;;;5033269;28;20032;-85
2021/06/16 10:30:08;;;;;;;3.17;2.05;;;28.40;41.50;;;;;;5045589;28;20112;-84
2021/06/16 10:32:45;;;;;;;2.38;1.80;;;28.20;40.90;;;;;;5046137;28;20029;-86
2021/06/16 10:35:13;;;;;;;3.30;2.03;;;28.10;41.40;;;;;;5031527;28;20115;-86
2021/06/16 10:37:45;;;;;;;1.50;1.40;;;28.10;41.60;;;;;;5046443;28;20079;-87
2021/06/16 10:40:19;;;;;;;3.15;2.22;;;28.30;42.10;;;;;;5026351;28;20038;-86
2021/06/16 10:43:06;;;;;;;2.97;1.70;;;28.20;41.10;;;;;;5028744;28;20025;-86
2021/06/16 10:45:41;;;;;;;1.60;1.42;;;28.30;41.00;;;;;;5038124;28;20388;-87
2021/06/16 10:48:10;;;;;;;3.58;2.22;;;28.30;41.50;;;;;;5035065;28;20025;-87
2021/06/16 10:50:48;;;;;;;4.78;2.35;;;28.40;41.60;;;;;;5027382;28;20040;-88
2021/06/16 10:53:19;;;;;;;3.85;2.50;;;28.40;41.30;;;;;;5032034;28;20053;-88
2021/06/16 10:55:53;;;;;;;3.10;1.90;;;28.20;41.20;;;;;;5027190;28;20025;-88
2021/06/16 10:58:29;;;;;;;3.75;1.80;;;28.20;41.60;;;;;;5041597;28;20029;-89
2021/06/16 11:01:13;;;;;;;2.88;1.90;;;28.30;41.90;;;;;;5030985;28;20032;-86
2021/06/16 11:03:48;;;;;;;4.10;2.40;;;28.40;41.70;;;;;;5048479;28;20056;-85
2021/06/16 11:06:42;;;;;;;3.95;2.40;;;28.50;41.40;;;;;;5039849;28;20136;-83
2021/06/16 11:09:14;;;;;;;2.85;2.00;;;28.30;41.10;;;;;;5047303;28;20036;-85
2021/06/16 11:11:54;;;;;;;3.78;2.72;;;28.40;41.60;;;;;;5037794;28;20596;-85
2021/06/16 11:14:49;;;;;;;4.35;2.28;;;28.60;41.50;;;;;;5029762;28;20029;-84
2021/06/16 11:17:27;;;;;;;3.70;1.90;;;28.50;41.40;;;;;;5022687;28;20534;-84
2021/06/16 11:20:02;;;;;;;4.50;2.67;;;28.60;41.60;;;;;;5049886;28;20086;-84
2021/06/16 11:22:28;;;;;;;4.15;2.15;;;29.00;41.30;;;;;;5048001;28;20017;-85
2021/06/16 11:25:21;;;;;;;3.22;1.90;;;28.80;41.30;;;;;;5043063;28;20036;-85
2021/06/16 11:27:57;;;;;;;3.17;2.13;;;29.10;41.50;;;;;;5030792;28;20018;-84
2021/06/16 11:30:36;;;;;;;3.13;1.70;;;29.50;41.00;;;;;;5044635;28;20036;-85
2021/06/16 11:33:20;;;;;;;3.25;2.00;;;29.70;40.80;;;;;;5032999;28;20040;-88
2021/06/16 11:35:49;;;;;;;3.10;1.98;;;29.90;40.60;;;;;;5041504;28;20025;-88
2021/06/16 11:38:18;;;;;;;2.30;1.90;;;30.10;40.30;;;;;;5047277;28;20040;-88
2021/06/16 11:41:16;;;;;;;2.97;1.50;;;30.20;39.90;;;;;;5046761;28;20032;-89
2021/06/16 11:44:00;;;;;;;4.53;2.42;;;30.10;39.90;;;;;;5048865;28;20043;-87
2021/06/16 11:46:30;;;;;;;4.07;2.92;;;29.70;39.60;;;;;;5035947;28;20639;-85
2021/06/16 11:49:05;;;;;;;2.80;1.88;;;29.50;40.20;;;;;;5040315;28;20467;-86
2021/06/16 11:51:31;;;;;;;2.72;1.88;;;29.60;40.70;;;;;;5044644;28;20503;-85
2021/06/16 11:54:23;;;;;;;8.18;2.83;;;29.80;40.40;;;;;;5048984;28;20029;-87
2021/06/16 11:56:58;;;;;;;4.20;2.50;;;29.90;40.20;;;;;;5044371;28;20033;-86
2021/06/16 11:59:35;;;;;;;2.58;1.90;;;29.80;40.10;;;;;;5043053;28;20528;-87
2021/06/16 12:02:05;;;;;;;2.30;1.75;;;29.80;40.40;;;;;;5038659;28;20182;-88
2021/06/16 12:04:45;;;;;;;4.75;2.90;;;30.00;40.40;;;;;;5047421;28;20111;-86
2021/06/16 12:07:10;;;;;;;3.03;2.28;;;30.30;39.80;;;;;;5058079;28;20064;-86
2021/06/16 12:09:47;;;;;;;2.67;2.17;;;30.20;39.90;;;;;;5045153;28;20058;-86
2021/06/16 12:12:13;;;;;;;3.40;1.80;;;30.30;39.90;;;;;;5048302;28;20021;-85
2021/06/16 12:14:39;;;;;;;4.85;2.30;;;30.70;39.70;;;;;;5041693;28;20033;-86
2021/06/16 12:17:05;;;;;;;3.55;2.05;;;30.90;39.30;;;;;;5039421;28;20025;-87
2021/06/16 12:19:36;;;;;;;3.67;2.50;;;30.80;39.60;;;;;;5042476;28;20426;-86
2021/06/16 12:22:03;;;;;;;3.83;2.40;;;30.70;39.10;;;;;;5051765;28;20036;-86
2021/06/16 12:24:35;;;;;;;3.42;2.35;;;30.40;39.20;;;;;;5048267;28;20030;-84
2021/06/16 12:27:03;;;;;;;3.97;2.55;;;30.50;39.70;;;;;;5042544;28;20025;-86
2021/06/16 12:29:30;;;;;;;3.17;2.65;;;30.60;39.50;;;;;;5038783;28;20025;-86
2021/06/16 12:31:59;;;;;;;3.05;2.03;;;30.40;39.70;;;;;;5038289;28;20021;-84
2021/06/16 12:37:12;;;;;;;3.35;2.00;;;30.50;39.80;;;;;;5039282;28;20036;-85
2021/06/16 12:39:59;;;;;;;2.80;2.15;;;30.40;39.60;;;;;;5037895;28;20410;-86
2021/06/16 12:42:43;;;;;;;5.25;2.92;;;30.60;39.60;;;;;;5033351;28;20029;-84
2021/06/16 12:45:39;;;;;;;2.75;1.95;;;30.40;39.30;;;;;;5036254;28;20053;-84
2021/06/16 12:48:11;;;;;;;5.35;1.98;;;30.70;39.70;;;;;;5044110;28;20021;-85
2021/06/16 12:50:37;;;;;;;;;;;30.90;39.50;;;;;;5038836;28;20038;-85
2021/06/16 12:53:13;;;;;;;1.85;1.70;;;31.20;39.50;;;;;;5034726;28;19913;-84
2021/06/16 12:55:54;;;;;;;3.28;1.73;;;31.50;39.00;;;;;;5041902;28;20083;-84
2021/06/16 12:58:23;;;;;;;5.00;2.72;;;31.70;38.60;;;;;;5039266;28;20443;-84
2021/06/16 13:00:51;;;;;;;2.20;1.70;;;31.40;38.10;;;;;;5042198;28;20029;-85